sensor_id;sensor_type;location;lat;lon;timestamp;P1;durP1;ratioP1;P2;durP2;ratioP2
37641;SDS011;23486;51.956;5.888;2022-08-21T00:01:14;3.63;;;1.45;;
37641;SDS011;23486;51.956;5.888;2022-08-21T00:03:43;6.03;;;1.95;;
37641;SDS011;23486;51.956;5.888;2022-08-21T00:06:08;5.03;;;1.90;;
37641;SDS011;23486;51.956;5.888;2022-08-21T00:08:35;5.70;;;2.30;;
37641;SDS011;23486;51.956;5.888;2022-08-21T00:11:01;5.85;;;1.80;;
37641;SDS011;23486;51.956;5.888;2022-08-21T00:13:26;4.05;;;1.73;;
37641;SDS011;23486;51.956;5.888;2022-08-21T00:15:52;4.47;;;1.58;;
37641;SDS011;23486;51.956;5.888;2022-08-21T00:18:18;7.13;;;2.25;;
37641;SDS011;23486;51.956;5.888;2022-08-21T00:20:44;4.95;;;1.48;;
37641;SDS011;23486;51.956;5.888;2022-08-21T00:23:11;4.20;;;1.63;;
37641;SDS011;23486;51.956;5.888;2022-08-21T00:25:38;4.60;;;1.25;;
37641;SDS011;23486;51.956;5.888;2022-08-21T00:28:04;3.80;;;1.50;;
37641;SDS011;23486;51.956;5.888;2022-08-21T00:30:31;4.05;;;1.58;;
37641;SDS011;23486;51.956;5.888;2022-08-21T00:32:58;4.15;;;1.52;;
37641;SDS011;23486;51.956;5.888;2022-08-21T00:35:26;4.25;;;1.80;;
37641;SDS011;23486;51.956;5.888;2022-08-21T00:37:57;3.83;;;1.40;;
37641;SDS011;23486;51.956;5.888;2022-08-21T00:40:29;4.55;;;2.00;;
37641;SDS011;23486;51.956;5.888;2022-08-21T00:42:59;3.75;;;1.27;;
37641;SDS011;23486;51.956;5.888;2022-08-21T00:45:28;6.07;;;2.25;;
37641;SDS011;23486;51.956;5.888;2022-08-21T00:47:57;5.30;;;1.30;;
37641;SDS011;23486;51.956;5.888;2022-08-21T00:50:32;5.93;;;1.75;;
37641;SDS011;23486;51.956;5.888;2022-08-21T00:53:01;5.57;;;1.65;;
37641;SDS011;23486;51.956;5.888;2022-08-21T00:55:28;5.68;;;1.73;;
37641;SDS011;23486;51.956;5.888;2022-08-21T00:57:56;7.28;;;2.47;;
37641;SDS011;23486;51.956;5.888;2022-08-21T01:00:26;4.82;;;2.22;;
37641;SDS011;23486;51.956;5.888;2022-08-21T01:02:59;5.47;;;2.45;;
37641;SDS011;23486;51.956;5.888;2022-08-21T01:05:26;7.40;;;2.40;;
37641;SDS011;23486;51.956;5.888;2022-08-21T01:07:51;7.85;;;1.85;;
37641;SDS011;23486;51.956;5.888;2022-08-21T01:10:18;5.80;;;1.95;;
37641;SDS011;23486;51.956;5.888;2022-08-21T01:12:44;4.78;;;1.92;;
37641;SDS011;23486;51.956;5.888;2022-08-21T01:15:10;5.78;;;2.28;;
37641;SDS011;23486;51.956;5.888;2022-08-21T01:17:37;4.55;;;2.38;;
37641;SDS011;23486;51.956;5.888;2022-08-21T01:20:05;4.45;;;2.38;;
37641;SDS011;23486;51.956;5.888;2022-08-21T01:22:33;4.60;;;2.47;;
37641;SDS011;23486;51.956;5.888;2022-08-21T01:24:59;4.75;;;2.15;;
37641;SDS011;23486;51.956;5.888;2022-08-21T01:27:24;6.55;;;2.70;;
37641;SDS011;23486;51.956;5.888;2022-08-21T01:29:54;5.57;;;2.33;;
37641;SDS011;23486;51.956;5.888;2022-08-21T01:32:23;6.05;;;2.08;;
37641;SDS011;23486;51.956;5.888;2022-08-21T01:34:49;5.00;;;2.20;;
37641;SDS011;23486;51.956;5.888;2022-08-21T01:37:17;3.55;;;1.70;;
37641;SDS011;23486;51.956;5.888;2022-08-21T01:39:44;5.65;;;2.42;;
37641;SDS011;23486;51.956;5.888;2022-08-21T01:42:11;4.85;;;1.95;;
37641;SDS011;23486;51.956;5.888;2022-08-21T01:44:37;4.93;;;1.98;;
37641;SDS011;23486;51.956;5.888;2022-08-21T01:47:04;4.25;;;2.05;;
37641;SDS011;23486;51.956;5.888;2022-08-21T01:49:31;5.05;;;2.10;;
37641;SDS011;23486;51.956;5.888;2022-08-21T01:51:56;8.90;;;1.80;;
37641;SDS011;23486;51.956;5.888;2022-08-21T01:54:22;3.95;;;1.40;;
37641;SDS011;23486;51.956;5.888;2022-08-21T01:56:49;6.53;;;2.25;;
37641;SDS011;23486;51.956;5.888;2022-08-21T01:59:17;7.43;;;2.08;;
37641;SDS011;23486;51.956;5.888;2022-08-21T02:01:42;6.70;;;2.17;;
37641;SDS011;23486;51.956;5.888;2022-08-21T02:04:09;8.32;;;2.13;;
37641;SDS011;23486;51.956;5.888;2022-08-21T02:06:35;5.55;;;2.22;;
37641;SDS011;23486;51.956;5.888;2022-08-21T02:09:05;4.88;;;2.25;;
37641;SDS011;23486;51.956;5.888;2022-08-21T02:11:32;6.65;;;2.40;;
37641;SDS011;23486;51.956;5.888;2022-08-21T02:13:59;4.43;;;2.40;;
37641;SDS011;23486;51.956;5.888;2022-08-21T02:16:24;8.27;;;2.30;;
37641;SDS011;23486;51.956;5.888;2022-08-21T02:18:50;7.15;;;2.42;;
37641;SDS011;23486;51.956;5.888;2022-08-21T02:21:16;7.00;;;2.35;;
37641;SDS011;23486;51.956;5.888;2022-08-21T02:23:42;4.03;;;1.92;;
37641;SDS011;23486;51.956;5.888;2022-08-21T02:26:10;5.28;;;2.67;;
37641;SDS011;23486;51.956;5.888;2022-08-21T02:28:42;6.35;;;2.90;;
37641;SDS011;23486;51.956;5.888;2022-08-21T02:31:10;7.15;;;2.78;;
37641;SDS011;23486;51.956;5.888;2022-08-21T02:33:39;6.63;;;3.05;;
37641;SDS011;23486;51.956;5.888;2022-08-21T02:36:08;5.28;;;2.63;;
37641;SDS011;23486;51.956;5.888;2022-08-21T02:38:39;5.65;;;2.38;;
37641;SDS011;23486;51.956;5.888;2022-08-21T02:41:07;4.85;;;2.05;;
37641;SDS011;23486;51.956;5.888;2022-08-21T02:43:35;4.70;;;2.40;;
37641;SDS011;23486;51.956;5.888;2022-08-21T02:46:02;7.10;;;2.95;;
37641;SDS011;23486;51.956;5.888;2022-08-21T02:48:30;6.47;;;2.92;;
37641;SDS011;23486;51.956;5.888;2022-08-21T02:51:00;5.43;;;2.92;;
37641;SDS011;23486;51.956;5.888;2022-08-21T02:53:37;4.43;;;2.47;;
37641;SDS011;23486;51.956;5.888;2022-08-21T02:56:04;6.05;;;3.22;;
37641;SDS011;23486;51.956;5.888;2022-08-21T02:58:33;7.90;;;3.33;;
37641;SDS011;23486;51.956;5.888;2022-08-21T03:01:03;5.40;;;2.78;;
37641;SDS011;23486;51.956;5.888;2022-08-21T03:03:29;6.50;;;3.25;;
37641;SDS011;23486;51.956;5.888;2022-08-21T03:05:55;5.65;;;2.72;;
37641;SDS011;23486;51.956;5.888;2022-08-21T03:08:21;7.75;;;2.78;;
37641;SDS011;23486;51.956;5.888;2022-08-21T03:10:49;4.97;;;3.13;;
37641;SDS011;23486;51.956;5.888;2022-08-21T03:13:16;6.80;;;3.22;;
37641;SDS011;23486;51.956;5.888;2022-08-21T03:15:44;8.23;;;3.25;;
37641;SDS011;23486;51.956;5.888;2022-08-21T03:18:10;5.70;;;3.05;;
37641;SDS011;23486;51.956;5.888;2022-08-21T03:20:36;7.93;;;3.60;;
37641;SDS011;23486;51.956;5.888;2022-08-21T03:23:04;6.45;;;3.13;;
37641;SDS011;23486;51.956;5.888;2022-08-21T03:25:31;5.22;;;2.90;;
37641;SDS011;23486;51.956;5.888;2022-08-21T03:27:57;4.38;;;3.13;;
37641;SDS011;23486;51.956;5.888;2022-08-21T03:30:25;4.70;;;2.78;;
37641;SDS011;23486;51.956;5.888;2022-08-21T03:32:50;7.70;;;3.85;;
37641;SDS011;23486;51.956;5.888;2022-08-21T03:35:17;7.53;;;3.60;;
37641;SDS011;23486;51.956;5.888;2022-08-21T03:37:43;7.78;;;2.97;;
37641;SDS011;23486;51.956;5.888;2022-08-21T03:40:10;6.03;;;3.10;;
37641;SDS011;23486;51.956;5.888;2022-08-21T03:42:36;5.63;;;2.97;;
37641;SDS011;23486;51.956;5.888;2022-08-21T03:45:03;5.18;;;3.33;;
37641;SDS011;23486;51.956;5.888;2022-08-21T03:47:29;7.53;;;3.60;;
37641;SDS011;23486;51.956;5.888;2022-08-21T03:49:54;7.90;;;3.65;;
37641;SDS011;23486;51.956;5.888;2022-08-21T03:52:20;5.85;;;3.47;;
37641;SDS011;23486;51.956;5.888;2022-08-21T03:54:46;7.18;;;4.35;;
37641;SDS011;23486;51.956;5.888;2022-08-21T03:57:12;9.68;;;3.88;;
37641;SDS011;23486;51.956;5.888;2022-08-21T03:59:38;7.70;;;3.83;;
37641;SDS011;23486;51.956;5.888;2022-08-21T04:02:05;5.63;;;3.60;;
37641;SDS011;23486;51.956;5.888;2022-08-21T04:04:32;7.53;;;3.75;;
37641;SDS011;23486;51.956;5.888;2022-08-21T04:06:58;7.15;;;4.60;;
37641;SDS011;23486;51.956;5.888;2022-08-21T04:09:24;7.03;;;4.22;;
37641;SDS011;23486;51.956;5.888;2022-08-21T04:11:50;6.80;;;4.15;;
37641;SDS011;23486;51.956;5.888;2022-08-21T04:14:19;5.97;;;3.60;;
37641;SDS011;23486;51.956;5.888;2022-08-21T04:16:45;8.90;;;4.15;;
37641;SDS011;23486;51.956;5.888;2022-08-21T04:19:11;6.07;;;3.67;;
37641;SDS011;23486;51.956;5.888;2022-08-21T04:21:38;9.27;;;4.65;;
37641;SDS011;23486;51.956;5.888;2022-08-21T04:24:05;6.38;;;3.83;;
37641;SDS011;23486;51.956;5.888;2022-08-21T04:26:32;7.43;;;4.63;;
37641;SDS011;23486;51.956;5.888;2022-08-21T04:28:59;7.70;;;4.80;;
37641;SDS011;23486;51.956;5.888;2022-08-21T04:31:25;9.45;;;4.22;;
37641;SDS011;23486;51.956;5.888;2022-08-21T04:33:50;6.97;;;4.43;;
37641;SDS011;23486;51.956;5.888;2022-08-21T04:36:16;5.65;;;4.38;;
37641;SDS011;23486;51.956;5.888;2022-08-21T04:38:42;6.90;;;4.60;;
37641;SDS011;23486;51.956;5.888;2022-08-21T04:41:08;8.63;;;5.07;;
37641;SDS011;23486;51.956;5.888;2022-08-21T04:43:35;10.48;;;4.60;;
37641;SDS011;23486;51.956;5.888;2022-08-21T04:46:00;9.57;;;5.55;;
37641;SDS011;23486;51.956;5.888;2022-08-21T04:48:26;9.73;;;5.18;;
37641;SDS011;23486;51.956;5.888;2022-08-21T04:53:54;9.52;;;4.95;;
37641;SDS011;23486;51.956;5.888;2022-08-21T04:58:58;7.80;;;4.80;;
37641;SDS011;23486;51.956;5.888;2022-08-21T05:01:28;7.65;;;5.38;;
37641;SDS011;23486;51.956;5.888;2022-08-21T05:03:56;9.95;;;5.35;;
37641;SDS011;23486;51.956;5.888;2022-08-21T05:06:24;9.40;;;5.32;;
37641;SDS011;23486;51.956;5.888;2022-08-21T05:08:51;9.07;;;5.13;;
37641;SDS011;23486;51.956;5.888;2022-08-21T05:11:19;7.22;;;4.60;;
37641;SDS011;23486;51.956;5.888;2022-08-21T05:13:46;7.13;;;4.63;;
37641;SDS011;23486;51.956;5.888;2022-08-21T05:16:13;9.20;;;5.30;;
37641;SDS011;23486;51.956;5.888;2022-08-21T05:18:42;9.70;;;5.88;;
37641;SDS011;23486;51.956;5.888;2022-08-21T05:21:08;6.72;;;4.95;;
37641;SDS011;23486;51.956;5.888;2022-08-21T05:23:34;8.18;;;5.45;;
37641;SDS011;23486;51.956;5.888;2022-08-21T05:26:00;8.95;;;5.20;;
37641;SDS011;23486;51.956;5.888;2022-08-21T05:28:26;9.63;;;5.53;;
37641;SDS011;23486;51.956;5.888;2022-08-21T05:30:52;8.27;;;5.30;;
37641;SDS011;23486;51.956;5.888;2022-08-21T05:33:18;8.10;;;5.53;;
37641;SDS011;23486;51.956;5.888;2022-08-21T05:35:44;10.75;;;5.68;;
37641;SDS011;23486;51.956;5.888;2022-08-21T05:38:09;9.40;;;6.15;;
37641;SDS011;23486;51.956;5.888;2022-08-21T05:40:38;10.38;;;5.32;;
37641;SDS011;23486;51.956;5.888;2022-08-21T05:43:04;9.75;;;6.25;;
37641;SDS011;23486;51.956;5.888;2022-08-21T05:45:32;9.55;;;6.35;;
37641;SDS011;23486;51.956;5.888;2022-08-21T05:48:05;10.05;;;6.93;;
37641;SDS011;23486;51.956;5.888;2022-08-21T05:50:34;10.30;;;6.43;;
37641;SDS011;23486;51.956;5.888;2022-08-21T05:53:02;11.90;;;6.72;;
37641;SDS011;23486;51.956;5.888;2022-08-21T05:55:28;12.18;;;6.60;;
37641;SDS011;23486;51.956;5.888;2022-08-21T05:57:56;10.30;;;6.68;;
37641;SDS011;23486;51.956;5.888;2022-08-21T06:00:22;11.15;;;8.70;;
37641;SDS011;23486;51.956;5.888;2022-08-21T06:02:48;10.45;;;7.32;;
37641;SDS011;23486;51.956;5.888;2022-08-21T06:05:15;14.60;;;8.98;;
37641;SDS011;23486;51.956;5.888;2022-08-21T06:07:42;12.10;;;8.68;;
37641;SDS011;23486;51.956;5.888;2022-08-21T06:10:07;11.18;;;8.05;;
37641;SDS011;23486;51.956;5.888;2022-08-21T06:12:33;10.95;;;8.40;;
37641;SDS011;23486;51.956;5.888;2022-08-21T06:14:59;12.10;;;9.30;;
37641;SDS011;23486;51.956;5.888;2022-08-21T06:17:24;10.30;;;8.15;;
37641;SDS011;23486;51.956;5.888;2022-08-21T06:19:51;11.50;;;9.23;;
37641;SDS011;23486;51.956;5.888;2022-08-21T06:22:17;11.23;;;8.30;;
37641;SDS011;23486;51.956;5.888;2022-08-21T06:24:43;11.25;;;8.93;;
37641;SDS011;23486;51.956;5.888;2022-08-21T06:27:09;7.45;;;5.15;;
37641;SDS011;23486;51.956;5.888;2022-08-21T06:29:35;19.55;;;9.20;;
37641;SDS011;23486;51.956;5.888;2022-08-21T06:32:00;14.57;;;9.15;;
37641;SDS011;23486;51.956;5.888;2022-08-21T06:34:26;13.20;;;8.50;;
37641;SDS011;23486;51.956;5.888;2022-08-21T06:36:52;14.75;;;7.75;;
37641;SDS011;23486;51.956;5.888;2022-08-21T06:39:18;14.23;;;7.80;;
37641;SDS011;23486;51.956;5.888;2022-08-21T06:41:44;13.57;;;6.90;;
37641;SDS011;23486;51.956;5.888;2022-08-21T06:44:10;10.32;;;7.30;;
37641;SDS011;23486;51.956;5.888;2022-08-21T06:46:38;11.10;;;7.00;;
37641;SDS011;23486;51.956;5.888;2022-08-21T06:49:03;10.15;;;6.20;;
37641;SDS011;23486;51.956;5.888;2022-08-21T06:51:29;16.63;;;7.50;;
37641;SDS011;23486;51.956;5.888;2022-08-21T06:53:55;8.63;;;5.22;;
37641;SDS011;23486;51.956;5.888;2022-08-21T06:56:23;12.25;;;6.22;;
37641;SDS011;23486;51.956;5.888;2022-08-21T06:58:49;10.25;;;5.50;;
37641;SDS011;23486;51.956;5.888;2022-08-21T07:01:15;13.68;;;6.43;;
37641;SDS011;23486;51.956;5.888;2022-08-21T07:03:41;11.60;;;7.40;;
37641;SDS011;23486;51.956;5.888;2022-08-21T07:06:08;12.57;;;6.57;;
37641;SDS011;23486;51.956;5.888;2022-08-21T07:08:38;12.68;;;7.72;;
37641;SDS011;23486;51.956;5.888;2022-08-21T07:11:09;10.48;;;6.57;;
37641;SDS011;23486;51.956;5.888;2022-08-21T07:13:39;14.48;;;5.78;;
37641;SDS011;23486;51.956;5.888;2022-08-21T07:16:05;15.18;;;6.47;;
37641;SDS011;23486;51.956;5.888;2022-08-21T07:18:34;10.88;;;6.15;;
37641;SDS011;23486;51.956;5.888;2022-08-21T07:21:03;10.93;;;6.75;;
37641;SDS011;23486;51.956;5.888;2022-08-21T07:23:32;9.93;;;5.40;;
37641;SDS011;23486;51.956;5.888;2022-08-21T07:26:08;11.60;;;6.28;;
37641;SDS011;23486;51.956;5.888;2022-08-21T07:28:34;13.32;;;5.07;;
37641;SDS011;23486;51.956;5.888;2022-08-21T07:31:01;10.77;;;5.68;;
37641;SDS011;23486;51.956;5.888;2022-08-21T07:33:28;8.32;;;4.60;;
37641;SDS011;23486;51.956;5.888;2022-08-21T07:35:55;9.00;;;5.38;;
37641;SDS011;23486;51.956;5.888;2022-08-21T07:38:21;10.88;;;6.18;;
37641;SDS011;23486;51.956;5.888;2022-08-21T07:40:47;11.48;;;6.05;;
37641;SDS011;23486;51.956;5.888;2022-08-21T07:43:15;8.57;;;5.45;;
37641;SDS011;23486;51.956;5.888;2022-08-21T07:45:44;13.55;;;4.78;;
37641;SDS011;23486;51.956;5.888;2022-08-21T07:48:10;11.90;;;5.22;;
37641;SDS011;23486;51.956;5.888;2022-08-21T07:50:36;10.20;;;5.80;;
37641;SDS011;23486;51.956;5.888;2022-08-21T07:53:02;10.98;;;5.57;;
37641;SDS011;23486;51.956;5.888;2022-08-21T07:55:28;10.00;;;5.32;;
37641;SDS011;23486;51.956;5.888;2022-08-21T07:57:54;11.57;;;5.25;;
37641;SDS011;23486;51.956;5.888;2022-08-21T08:00:21;8.60;;;5.40;;
37641;SDS011;23486;51.956;5.888;2022-08-21T08:02:49;9.73;;;4.85;;
37641;SDS011;23486;51.956;5.888;2022-08-21T08:05:17;11.50;;;4.68;;
37641;SDS011;23486;51.956;5.888;2022-08-21T08:07:44;12.13;;;4.80;;
37641;SDS011;23486;51.956;5.888;2022-08-21T08:10:09;12.60;;;5.13;;
37641;SDS011;23486;51.956;5.888;2022-08-21T08:12:36;11.48;;;5.90;;
37641;SDS011;23486;51.956;5.888;2022-08-21T08:15:05;15.13;;;6.65;;
37641;SDS011;23486;51.956;5.888;2022-08-21T08:17:32;12.60;;;5.60;;
37641;SDS011;23486;51.956;5.888;2022-08-21T08:19:58;12.23;;;4.50;;
37641;SDS011;23486;51.956;5.888;2022-08-21T08:22:26;9.35;;;3.88;;
37641;SDS011;23486;51.956;5.888;2022-08-21T08:24:52;8.98;;;4.75;;
37641;SDS011;23486;51.956;5.888;2022-08-21T08:27:18;20.15;;;6.85;;
37641;SDS011;23486;51.956;5.888;2022-08-21T08:29:44;12.45;;;4.55;;
37641;SDS011;23486;51.956;5.888;2022-08-21T08:32:10;9.55;;;4.55;;
37641;SDS011;23486;51.956;5.888;2022-08-21T08:34:37;15.32;;;4.95;;
37641;SDS011;23486;51.956;5.888;2022-08-21T08:37:04;13.27;;;4.43;;
37641;SDS011;23486;51.956;5.888;2022-08-21T08:39:35;8.93;;;3.15;;
37641;SDS011;23486;51.956;5.888;2022-08-21T08:42:08;12.13;;;4.55;;
37641;SDS011;23486;51.956;5.888;2022-08-21T08:44:38;10.15;;;4.38;;
37641;SDS011;23486;51.956;5.888;2022-08-21T08:47:03;11.20;;;3.92;;
37641;SDS011;23486;51.956;5.888;2022-08-21T08:49:50;9.15;;;4.07;;
37641;SDS011;23486;51.956;5.888;2022-08-21T08:52:27;14.30;;;3.90;;
37641;SDS011;23486;51.956;5.888;2022-08-21T08:54:59;10.10;;;3.33;;
37641;SDS011;23486;51.956;5.888;2022-08-21T08:57:34;11.38;;;3.05;;
37641;SDS011;23486;51.956;5.888;2022-08-21T09:00:07;7.72;;;3.13;;
37641;SDS011;23486;51.956;5.888;2022-08-21T09:02:36;11.85;;;2.97;;
37641;SDS011;23486;51.956;5.888;2022-08-21T09:05:04;8.77;;;1.73;;
37641;SDS011;23486;51.956;5.888;2022-08-21T09:10:44;11.77;;;2.17;;
37641;SDS011;23486;51.956;5.888;2022-08-21T09:21:18;6.28;;;1.70;;
37641;SDS011;23486;51.956;5.888;2022-08-21T09:26:47;10.02;;;1.90;;
37641;SDS011;23486;51.956;5.888;2022-08-21T09:29:23;5.70;;;1.33;;
37641;SDS011;23486;51.956;5.888;2022-08-21T09:31:53;10.07;;;1.95;;
37641;SDS011;23486;51.956;5.888;2022-08-21T09:34:26;7.70;;;1.10;;
37641;SDS011;23486;51.956;5.888;2022-08-21T09:36:54;6.10;;;0.95;;
37641;SDS011;23486;51.956;5.888;2022-08-21T09:42:05;4.32;;;0.90;;
37641;SDS011;23486;51.956;5.888;2022-08-21T09:44:34;10.02;;;1.35;;
37641;SDS011;23486;51.956;5.888;2022-08-21T09:47:05;8.52;;;1.90;;
37641;SDS011;23486;51.956;5.888;2022-08-21T09:49:35;8.98;;;2.03;;
37641;SDS011;23486;51.956;5.888;2022-08-21T09:52:03;5.50;;;1.42;;
37641;SDS011;23486;51.956;5.888;2022-08-21T09:54:39;7.90;;;1.30;;
37641;SDS011;23486;51.956;5.888;2022-08-21T09:57:13;6.13;;;1.33;;
37641;SDS011;23486;51.956;5.888;2022-08-21T10:00:20;8.90;;;1.05;;
37641;SDS011;23486;51.956;5.888;2022-08-21T10:02:54;3.45;;;0.68;;
37641;SDS011;23486;51.956;5.888;2022-08-21T10:05:49;5.22;;;0.65;;
37641;SDS011;23486;51.956;5.888;2022-08-21T10:08:30;4.10;;;0.73;;
37641;SDS011;23486;51.956;5.888;2022-08-21T10:11:01;7.07;;;0.80;;
37641;SDS011;23486;51.956;5.888;2022-08-21T10:19:26;5.53;;;0.70;;
37641;SDS011;23486;51.956;5.888;2022-08-21T10:24:33;5.07;;;0.68;;
37641;SDS011;23486;51.956;5.888;2022-08-21T10:27:20;5.22;;;0.73;;
37641;SDS011;23486;51.956;5.888;2022-08-21T10:35:02;4.78;;;0.50;;
37641;SDS011;23486;51.956;5.888;2022-08-21T10:37:48;3.65;;;0.55;;
37641;SDS011;23486;51.956;5.888;2022-08-21T10:40:52;2.35;;;0.40;;
37641;SDS011;23486;51.956;5.888;2022-08-21T10:54:00;5.43;;;0.45;;
37641;SDS011;23486;51.956;5.888;2022-08-21T10:56:31;5.20;;;0.70;;
37641;SDS011;23486;51.956;5.888;2022-08-21T10:59:17;5.72;;;0.90;;
37641;SDS011;23486;51.956;5.888;2022-08-21T11:04:24;3.70;;;0.50;;
37641;SDS011;23486;51.956;5.888;2022-08-21T11:07:16;3.33;;;0.65;;
37641;SDS011;23486;51.956;5.888;2022-08-21T11:09:55;5.60;;;0.55;;
37641;SDS011;23486;51.956;5.888;2022-08-21T11:12:35;4.97;;;0.50;;
37641;SDS011;23486;51.956;5.888;2022-08-21T11:23:42;6.80;;;0.40;;
37641;SDS011;23486;51.956;5.888;2022-08-21T11:26:29;3.03;;;0.40;;
37641;SDS011;23486;51.956;5.888;2022-08-21T11:29:46;4.13;;;0.40;;
37641;SDS011;23486;51.956;5.888;2022-08-21T11:37:53;5.32;;;0.47;;
37641;SDS011;23486;51.956;5.888;2022-08-21T11:43:17;4.47;;;0.50;;
37641;SDS011;23486;51.956;5.888;2022-08-21T11:46:09;3.35;;;0.50;;
37641;SDS011;23486;51.956;5.888;2022-08-21T11:48:43;2.40;;;0.40;;
37641;SDS011;23486;51.956;5.888;2022-08-21T11:54:16;4.78;;;0.50;;
37641;SDS011;23486;51.956;5.888;2022-08-21T11:57:02;4.95;;;0.40;;
37641;SDS011;23486;51.956;5.888;2022-08-21T11:59:37;5.95;;;0.60;;
37641;SDS011;23486;51.956;5.888;2022-08-21T12:02:13;5.57;;;0.63;;
37641;SDS011;23486;51.956;5.888;2022-08-21T12:04:53;4.28;;;0.60;;
37641;SDS011;23486;51.956;5.888;2022-08-21T12:07:31;5.15;;;0.50;;
37641;SDS011;23486;51.956;5.888;2022-08-21T12:09:59;3.10;;;0.55;;
37641;SDS011;23486;51.956;5.888;2022-08-21T12:12:27;2.83;;;0.40;;
37641;SDS011;23486;51.956;5.888;2022-08-21T12:15:05;2.88;;;0.40;;
37641;SDS011;23486;51.956;5.888;2022-08-21T12:17:52;2.75;;;0.30;;
37641;SDS011;23486;51.956;5.888;2022-08-21T12:20:37;3.60;;;0.30;;
37641;SDS011;23486;51.956;5.888;2022-08-21T12:25:38;3.13;;;0.40;;
37641;SDS011;23486;51.956;5.888;2022-08-21T12:28:14;2.05;;;0.30;;
37641;SDS011;23486;51.956;5.888;2022-08-21T12:30:46;2.88;;;0.30;;
37641;SDS011;23486;51.956;5.888;2022-08-21T12:36:03;5.25;;;0.40;;
37641;SDS011;23486;51.956;5.888;2022-08-21T12:38:52;2.88;;;0.38;;
37641;SDS011;23486;51.956;5.888;2022-08-21T12:41:42;3.22;;;0.32;;
37641;SDS011;23486;51.956;5.888;2022-08-21T12:44:31;2.42;;;0.30;;
37641;SDS011;23486;51.956;5.888;2022-08-21T12:47:04;4.35;;;0.43;;
37641;SDS011;23486;51.956;5.888;2022-08-21T12:49:41;3.33;;;0.50;;
37641;SDS011;23486;51.956;5.888;2022-08-21T12:52:35;1.90;;;0.30;;
37641;SDS011;23486;51.956;5.888;2022-08-21T12:55:13;3.97;;;0.30;;
37641;SDS011;23486;51.956;5.888;2022-08-21T12:57:41;2.47;;;0.30;;
37641;SDS011;23486;51.956;5.888;2022-08-21T13:00:08;3.33;;;0.35;;
37641;SDS011;23486;51.956;5.888;2022-08-21T13:02:42;3.50;;;0.30;;
37641;SDS011;23486;51.956;5.888;2022-08-21T13:05:13;2.10;;;0.30;;
37641;SDS011;23486;51.956;5.888;2022-08-21T13:07:44;7.03;;;0.98;;
37641;SDS011;23486;51.956;5.888;2022-08-21T13:10:22;3.17;;;0.30;;
37641;SDS011;23486;51.956;5.888;2022-08-21T13:12:50;2.03;;;0.30;;
37641;SDS011;23486;51.956;5.888;2022-08-21T13:15:23;2.20;;;0.30;;
37641;SDS011;23486;51.956;5.888;2022-08-21T13:17:51;3.53;;;0.30;;
37641;SDS011;23486;51.956;5.888;2022-08-21T13:20:21;2.70;;;0.30;;
37641;SDS011;23486;51.956;5.888;2022-08-21T13:22:49;2.47;;;0.30;;
37641;SDS011;23486;51.956;5.888;2022-08-21T13:25:16;2.75;;;0.20;;
37641;SDS011;23486;51.956;5.888;2022-08-21T13:27:45;2.88;;;0.40;;
37641;SDS011;23486;51.956;5.888;2022-08-21T13:30:42;1.55;;;0.30;;
37641;SDS011;23486;51.956;5.888;2022-08-21T13:33:12;3.22;;;0.40;;
37641;SDS011;23486;51.956;5.888;2022-08-21T13:38:13;3.67;;;0.30;;
37641;SDS011;23486;51.956;5.888;2022-08-21T13:40:58;5.85;;;0.40;;
37641;SDS011;23486;51.956;5.888;2022-08-21T13:43:35;2.35;;;0.30;;
37641;SDS011;23486;51.956;5.888;2022-08-21T13:46:02;3.20;;;0.65;;
37641;SDS011;23486;51.956;5.888;2022-08-21T13:48:34;2.45;;;0.28;;
37641;SDS011;23486;51.956;5.888;2022-08-21T13:51:01;1.88;;;0.30;;
37641;SDS011;23486;51.956;5.888;2022-08-21T13:58:51;2.50;;;0.30;;
37641;SDS011;23486;51.956;5.888;2022-08-21T14:01:22;2.35;;;0.30;;
37641;SDS011;23486;51.956;5.888;2022-08-21T14:03:48;3.10;;;0.40;;
37641;SDS011;23486;51.956;5.888;2022-08-21T14:08:54;3.65;;;0.30;;
37641;SDS011;23486;51.956;5.888;2022-08-21T14:11:25;3.83;;;0.30;;
37641;SDS011;23486;51.956;5.888;2022-08-21T14:16:21;4.43;;;0.40;;
37641;SDS011;23486;51.956;5.888;2022-08-21T14:19:07;4.70;;;0.30;;
37641;SDS011;23486;51.956;5.888;2022-08-21T14:21:45;1.10;;;0.20;;
37641;SDS011;23486;51.956;5.888;2022-08-21T14:27:06;3.35;;;0.30;;
37641;SDS011;23486;51.956;5.888;2022-08-21T14:29:36;5.00;;;0.30;;
37641;SDS011;23486;51.956;5.888;2022-08-21T14:32:12;2.63;;;0.40;;
37641;SDS011;23486;51.956;5.888;2022-08-21T14:34:47;3.90;;;0.30;;
37641;SDS011;23486;51.956;5.888;2022-08-21T14:37:16;2.90;;;0.38;;
37641;SDS011;23486;51.956;5.888;2022-08-21T14:39:42;3.25;;;0.32;;
37641;SDS011;23486;51.956;5.888;2022-08-21T14:42:07;2.45;;;0.20;;
37641;SDS011;23486;51.956;5.888;2022-08-21T14:44:33;2.13;;;0.20;;
37641;SDS011;23486;51.956;5.888;2022-08-21T14:47:02;2.08;;;0.30;;
37641;SDS011;23486;51.956;5.888;2022-08-21T14:49:28;4.05;;;0.30;;
37641;SDS011;23486;51.956;5.888;2022-08-21T14:51:55;1.75;;;0.30;;
37641;SDS011;23486;51.956;5.888;2022-08-21T14:54:31;3.78;;;0.30;;
37641;SDS011;23486;51.956;5.888;2022-08-21T14:57:00;1.45;;;0.30;;
37641;SDS011;23486;51.956;5.888;2022-08-21T14:59:30;3.28;;;0.47;;
37641;SDS011;23486;51.956;5.888;2022-08-21T15:01:58;3.28;;;0.32;;
37641;SDS011;23486;51.956;5.888;2022-08-21T15:04:24;1.95;;;0.32;;
37641;SDS011;23486;51.956;5.888;2022-08-21T15:06:49;5.35;;;0.80;;
37641;SDS011;23486;51.956;5.888;2022-08-21T15:09:15;5.80;;;0.70;;
37641;SDS011;23486;51.956;5.888;2022-08-21T15:11:41;4.55;;;0.93;;
37641;SDS011;23486;51.956;5.888;2022-08-21T15:14:07;4.45;;;0.50;;
37641;SDS011;23486;51.956;5.888;2022-08-21T15:16:39;2.65;;;0.52;;
37641;SDS011;23486;51.956;5.888;2022-08-21T15:19:05;2.25;;;0.30;;
37641;SDS011;23486;51.956;5.888;2022-08-21T15:21:30;1.95;;;0.30;;
37641;SDS011;23486;51.956;5.888;2022-08-21T15:23:56;2.72;;;0.28;;
37641;SDS011;23486;51.956;5.888;2022-08-21T15:26:22;3.85;;;0.30;;
37641;SDS011;23486;51.956;5.888;2022-08-21T15:28:48;5.55;;;0.50;;
37641;SDS011;23486;51.956;5.888;2022-08-21T15:31:14;4.20;;;0.70;;
37641;SDS011;23486;51.956;5.888;2022-08-21T15:33:39;2.03;;;0.30;;
37641;SDS011;23486;51.956;5.888;2022-08-21T15:36:05;3.33;;;0.50;;
37641;SDS011;23486;51.956;5.888;2022-08-21T15:38:31;1.88;;;0.30;;
37641;SDS011;23486;51.956;5.888;2022-08-21T15:40:56;2.13;;;0.30;;
37641;SDS011;23486;51.956;5.888;2022-08-21T15:43:24;3.90;;;0.32;;
37641;SDS011;23486;51.956;5.888;2022-08-21T15:45:51;3.30;;;0.40;;
37641;SDS011;23486;51.956;5.888;2022-08-21T15:48:17;2.92;;;0.40;;
37641;SDS011;23486;51.956;5.888;2022-08-21T15:50:43;4.75;;;0.40;;
37641;SDS011;23486;51.956;5.888;2022-08-21T15:53:12;2.53;;;0.40;;
37641;SDS011;23486;51.956;5.888;2022-08-21T15:55:37;2.58;;;0.40;;
37641;SDS011;23486;51.956;5.888;2022-08-21T15:58:06;5.28;;;0.60;;
37641;SDS011;23486;51.956;5.888;2022-08-21T16:00:37;3.78;;;0.50;;
37641;SDS011;23486;51.956;5.888;2022-08-21T16:03:03;4.90;;;0.70;;
37641;SDS011;23486;51.956;5.888;2022-08-21T16:05:31;4.85;;;0.50;;
37641;SDS011;23486;51.956;5.888;2022-08-21T16:07:59;5.65;;;1.40;;
37641;SDS011;23486;51.956;5.888;2022-08-21T16:10:25;5.53;;;0.52;;
37641;SDS011;23486;51.956;5.888;2022-08-21T16:12:54;4.47;;;0.35;;
37641;SDS011;23486;51.956;5.888;2022-08-21T16:15:25;2.78;;;0.40;;
37641;SDS011;23486;51.956;5.888;2022-08-21T16:17:51;5.40;;;0.40;;
37641;SDS011;23486;51.956;5.888;2022-08-21T16:20:20;4.90;;;0.60;;
37641;SDS011;23486;51.956;5.888;2022-08-21T16:22:49;4.20;;;0.68;;
37641;SDS011;23486;51.956;5.888;2022-08-21T16:25:15;5.57;;;0.65;;
37641;SDS011;23486;51.956;5.888;2022-08-21T16:27:42;3.38;;;0.47;;
37641;SDS011;23486;51.956;5.888;2022-08-21T16:30:11;5.47;;;0.47;;